sensor_id;sensor_type;location;lat;lon;timestamp;P1;durP1;ratioP1;P2;durP2;ratioP2
38779;SDS011;29273;49.962;9.768;2023-09-19T00:02:01;0.50;;;0.30;;
38779;SDS011;29273;49.962;9.768;2023-09-19T00:04:32;0.55;;;0.30;;
38779;SDS011;29273;49.962;9.768;2023-09-19T00:06:58;0.30;;;0.30;;
38779;SDS011;29273;49.962;9.768;2023-09-19T00:09:24;0.30;;;0.30;;
38779;SDS011;29273;49.962;9.768;2023-09-19T00:11:52;0.73;;;0.30;;
38779;SDS011;29273;49.962;9.768;2023-09-19T00:14:19;0.25;;;0.25;;
38779;SDS011;29273;49.962;9.768;2023-09-19T00:16:44;0.80;;;0.40;;
38779;SDS011;29273;49.962;9.768;2023-09-19T00:19:12;0.60;;;0.40;;
38779;SDS011;29273;49.962;9.768;2023-09-19T00:21:39;0.30;;;0.30;;
38779;SDS011;29273;49.962;9.768;2023-09-19T00:24:06;0.52;;;0.40;;
38779;SDS011;29273;49.962;9.768;2023-09-19T00:26:32;0.70;;;0.30;;
38779;SDS011;29273;49.962;9.768;2023-09-19T00:28:59;0.68;;;0.40;;
38779;SDS011;29273;49.962;9.768;2023-09-19T00:31:31;0.40;;;0.30;;
38779;SDS011;29273;49.962;9.768;2023-09-19T00:33:56;0.70;;;0.30;;
38779;SDS011;29273;49.962;9.768;2023-09-19T00:36:29;0.85;;;0.30;;
38779;SDS011;29273;49.962;9.768;2023-09-19T00:38:54;0.52;;;0.38;;
38779;SDS011;29273;49.962;9.768;2023-09-19T00:41:20;0.50;;;0.35;;
38779;SDS011;29273;49.962;9.768;2023-09-19T00:43:46;0.20;;;0.20;;
38779;SDS011;29273;49.962;9.768;2023-09-19T00:46:15;0.68;;;0.30;;
38779;SDS011;29273;49.962;9.768;2023-09-19T00:48:42;0.40;;;0.30;;
38779;SDS011;29273;49.962;9.768;2023-09-19T00:51:11;0.60;;;0.30;;
38779;SDS011;29273;49.962;9.768;2023-09-19T00:53:38;0.30;;;0.30;;
38779;SDS011;29273;49.962;9.768;2023-09-19T00:56:04;0.35;;;0.30;;
38779;SDS011;29273;49.962;9.768;2023-09-19T00:58:34;0.20;;;0.20;;
38779;SDS011;29273;49.962;9.768;2023-09-19T01:01:01;0.52;;;0.30;;
38779;SDS011;29273;49.962;9.768;2023-09-19T01:03:28;0.60;;;0.40;;
38779;SDS011;29273;49.962;9.768;2023-09-19T01:05:53;0.43;;;0.22;;
38779;SDS011;29273;49.962;9.768;2023-09-19T01:08:19;0.85;;;0.40;;
38779;SDS011;29273;49.962;9.768;2023-09-19T01:13:31;0.38;;;0.30;;
38779;SDS011;29273;49.962;9.768;2023-09-19T01:16:11;0.70;;;0.40;;
38779;SDS011;29273;49.962;9.768;2023-09-19T01:18:52;0.75;;;0.30;;
38779;SDS011;29273;49.962;9.768;2023-09-19T01:27:17;0.82;;;0.30;;
38779;SDS011;29273;49.962;9.768;2023-09-19T01:30:09;0.68;;;0.30;;
38779;SDS011;29273;49.962;9.768;2023-09-19T01:32:36;0.30;;;0.30;;
38779;SDS011;29273;49.962;9.768;2023-09-19T01:35:04;0.40;;;0.35;;
38779;SDS011;29273;49.962;9.768;2023-09-19T01:37:30;0.52;;;0.35;;
38779;SDS011;29273;49.962;9.768;2023-09-19T01:42:41;0.50;;;0.40;;
38779;SDS011;29273;49.962;9.768;2023-09-19T01:53:27;0.40;;;0.30;;
38779;SDS011;29273;49.962;9.768;2023-09-19T01:55:57;1.30;;;0.43;;
38779;SDS011;29273;49.962;9.768;2023-09-19T01:58:34;1.10;;;0.47;;
38779;SDS011;29273;49.962;9.768;2023-09-19T02:01:04;0.30;;;0.30;;
38779;SDS011;29273;49.962;9.768;2023-09-19T02:03:31;1.88;;;0.63;;
38779;SDS011;29273;49.962;9.768;2023-09-19T02:05:59;2.15;;;0.85;;
38779;SDS011;29273;49.962;9.768;2023-09-19T02:08:24;0.40;;;0.40;;
38779;SDS011;29273;49.962;9.768;2023-09-19T02:10:51;0.50;;;0.40;;
38779;SDS011;29273;49.962;9.768;2023-09-19T02:13:19;0.80;;;0.38;;
38779;SDS011;29273;49.962;9.768;2023-09-19T02:15:45;1.40;;;0.40;;
38779;SDS011;29273;49.962;9.768;2023-09-19T02:18:11;0.38;;;0.38;;
38779;SDS011;29273;49.962;9.768;2023-09-19T02:20:41;0.88;;;0.30;;
38779;SDS011;29273;49.962;9.768;2023-09-19T02:23:08;1.60;;;0.40;;
38779;SDS011;29273;49.962;9.768;2023-09-19T02:25:35;0.70;;;0.50;;
38779;SDS011;29273;49.962;9.768;2023-09-19T02:28:01;1.05;;;0.47;;
38779;SDS011;29273;49.962;9.768;2023-09-19T02:30:28;0.85;;;0.50;;
38779;SDS011;29273;49.962;9.768;2023-09-19T02:32:55;0.68;;;0.45;;
38779;SDS011;29273;49.962;9.768;2023-09-19T02:35:20;0.85;;;0.50;;
38779;SDS011;29273;49.962;9.768;2023-09-19T02:37:46;0.60;;;0.40;;
38779;SDS011;29273;49.962;9.768;2023-09-19T02:40:12;0.93;;;0.50;;
38779;SDS011;29273;49.962;9.768;2023-09-19T02:42:45;0.47;;;0.47;;
38779;SDS011;29273;49.962;9.768;2023-09-19T02:45:24;1.15;;;0.47;;
38779;SDS011;29273;49.962;9.768;2023-09-19T02:47:49;1.17;;;0.45;;
38779;SDS011;29273;49.962;9.768;2023-09-19T02:50:15;0.32;;;0.32;;
38779;SDS011;29273;49.962;9.768;2023-09-19T02:52:42;0.82;;;0.57;;
38779;SDS011;29273;49.962;9.768;2023-09-19T02:55:09;0.40;;;0.30;;
38779;SDS011;29273;49.962;9.768;2023-09-19T02:57:36;0.68;;;0.50;;
38779;SDS011;29273;49.962;9.768;2023-09-19T03:00:06;1.02;;;0.50;;
38779;SDS011;29273;49.962;9.768;2023-09-19T03:02:34;0.40;;;0.40;;
38779;SDS011;29273;49.962;9.768;2023-09-19T03:05:00;0.30;;;0.30;;
38779;SDS011;29273;49.962;9.768;2023-09-19T03:07:28;0.50;;;0.47;;
38779;SDS011;29273;49.962;9.768;2023-09-19T03:09:53;0.60;;;0.40;;
38779;SDS011;29273;49.962;9.768;2023-09-19T03:12:20;1.02;;;0.38;;
38779;SDS011;29273;49.962;9.768;2023-09-19T03:14:46;1.13;;;0.50;;
38779;SDS011;29273;49.962;9.768;2023-09-19T03:17:12;0.68;;;0.57;;
38779;SDS011;29273;49.962;9.768;2023-09-19T03:19:40;0.77;;;0.60;;
38779;SDS011;29273;49.962;9.768;2023-09-19T03:22:05;0.88;;;0.40;;
38779;SDS011;29273;49.962;9.768;2023-09-19T03:24:31;0.93;;;0.40;;
38779;SDS011;29273;49.962;9.768;2023-09-19T03:26:59;0.52;;;0.40;;
38779;SDS011;29273;49.962;9.768;2023-09-19T03:29:25;0.70;;;0.60;;
38779;SDS011;29273;49.962;9.768;2023-09-19T03:31:51;0.88;;;0.68;;
38779;SDS011;29273;49.962;9.768;2023-09-19T03:34:16;0.63;;;0.50;;
38779;SDS011;29273;49.962;9.768;2023-09-19T03:36:42;0.50;;;0.50;;
38779;SDS011;29273;49.962;9.768;2023-09-19T03:39:08;0.60;;;0.40;;
38779;SDS011;29273;49.962;9.768;2023-09-19T03:41:33;0.60;;;0.50;;
38779;SDS011;29273;49.962;9.768;2023-09-19T03:44:02;0.55;;;0.40;;
38779;SDS011;29273;49.962;9.768;2023-09-19T03:46:28;0.90;;;0.60;;
38779;SDS011;29273;49.962;9.768;2023-09-19T03:48:54;0.55;;;0.50;;
38779;SDS011;29273;49.962;9.768;2023-09-19T03:51:20;0.70;;;0.70;;
38779;SDS011;29273;49.962;9.768;2023-09-19T03:53:46;0.80;;;0.63;;
38779;SDS011;29273;49.962;9.768;2023-09-19T03:56:11;0.60;;;0.50;;
38779;SDS011;29273;49.962;9.768;2023-09-19T03:58:37;0.60;;;0.50;;
38779;SDS011;29273;49.962;9.768;2023-09-19T04:01:05;0.82;;;0.70;;
38779;SDS011;29273;49.962;9.768;2023-09-19T04:03:34;1.27;;;0.70;;
38779;SDS011;29273;49.962;9.768;2023-09-19T04:06:11;0.80;;;0.70;;
38779;SDS011;29273;49.962;9.768;2023-09-19T04:08:38;0.88;;;0.63;;
38779;SDS011;29273;49.962;9.768;2023-09-19T04:11:03;0.60;;;0.47;;
38779;SDS011;29273;49.962;9.768;2023-09-19T04:13:29;1.45;;;0.70;;
38779;SDS011;29273;49.962;9.768;2023-09-19T04:15:55;0.85;;;0.60;;
38779;SDS011;29273;49.962;9.768;2023-09-19T04:18:20;1.00;;;0.70;;
38779;SDS011;29273;49.962;9.768;2023-09-19T04:20:48;0.60;;;0.57;;
38779;SDS011;29273;49.962;9.768;2023-09-19T04:23:14;0.75;;;0.50;;
38779;SDS011;29273;49.962;9.768;2023-09-19T04:25:40;1.27;;;0.70;;
38779;SDS011;29273;49.962;9.768;2023-09-19T04:28:06;1.00;;;0.60;;
38779;SDS011;29273;49.962;9.768;2023-09-19T04:30:31;0.93;;;0.68;;
38779;SDS011;29273;49.962;9.768;2023-09-19T04:32:57;0.93;;;0.68;;
38779;SDS011;29273;49.962;9.768;2023-09-19T04:35:22;1.05;;;0.60;;
38779;SDS011;29273;49.962;9.768;2023-09-19T04:37:48;1.83;;;0.80;;
38779;SDS011;29273;49.962;9.768;2023-09-19T04:40:13;1.10;;;0.70;;
38779;SDS011;29273;49.962;9.768;2023-09-19T04:42:45;0.85;;;0.52;;
38779;SDS011;29273;49.962;9.768;2023-09-19T04:45:11;1.17;;;0.80;;
38779;SDS011;29273;49.962;9.768;2023-09-19T04:47:39;1.33;;;0.65;;
38779;SDS011;29273;49.962;9.768;2023-09-19T04:50:08;0.85;;;0.60;;
38779;SDS011;29273;49.962;9.768;2023-09-19T04:52:38;0.70;;;0.70;;
38779;SDS011;29273;49.962;9.768;2023-09-19T04:55:04;0.90;;;0.60;;
38779;SDS011;29273;49.962;9.768;2023-09-19T04:57:30;0.90;;;0.68;;
38779;SDS011;29273;49.962;9.768;2023-09-19T04:59:57;1.02;;;0.80;;
38779;SDS011;29273;49.962;9.768;2023-09-19T05:02:22;0.90;;;0.68;;
38779;SDS011;29273;49.962;9.768;2023-09-19T05:04:48;1.20;;;0.50;;
38779;SDS011;29273;49.962;9.768;2023-09-19T05:07:13;1.33;;;0.85;;
38779;SDS011;29273;49.962;9.768;2023-09-19T05:09:38;1.52;;;0.80;;
38779;SDS011;29273;49.962;9.768;2023-09-19T05:12:04;1.13;;;0.60;;
38779;SDS011;29273;49.962;9.768;2023-09-19T05:14:30;1.30;;;0.60;;
38779;SDS011;29273;49.962;9.768;2023-09-19T05:16:55;1.20;;;0.70;;
38779;SDS011;29273;49.962;9.768;2023-09-19T05:19:21;0.93;;;0.70;;
38779;SDS011;29273;49.962;9.768;2023-09-19T05:21:46;0.57;;;0.55;;
38779;SDS011;29273;49.962;9.768;2023-09-19T05:24:12;1.33;;;0.70;;
38779;SDS011;29273;49.962;9.768;2023-09-19T05:26:39;0.65;;;0.57;;
38779;SDS011;29273;49.962;9.768;2023-09-19T05:29:05;0.93;;;0.65;;
38779;SDS011;29273;49.962;9.768;2023-09-19T05:31:33;1.05;;;0.90;;
38779;SDS011;29273;49.962;9.768;2023-09-19T05:34:01;0.90;;;0.60;;
38779;SDS011;29273;49.962;9.768;2023-09-19T05:36:27;0.60;;;0.60;;
38779;SDS011;29273;49.962;9.768;2023-09-19T05:38:55;0.75;;;0.50;;
38779;SDS011;29273;49.962;9.768;2023-09-19T05:41:20;1.80;;;0.60;;
38779;SDS011;29273;49.962;9.768;2023-09-19T05:43:48;1.30;;;0.70;;
38779;SDS011;29273;49.962;9.768;2023-09-19T05:46:15;1.65;;;0.70;;
38779;SDS011;29273;49.962;9.768;2023-09-19T05:48:41;1.05;;;0.60;;
38779;SDS011;29273;49.962;9.768;2023-09-19T05:51:06;0.80;;;0.70;;
38779;SDS011;29273;49.962;9.768;2023-09-19T05:53:32;0.85;;;0.63;;
38779;SDS011;29273;49.962;9.768;2023-09-19T05:55:58;0.90;;;0.60;;
38779;SDS011;29273;49.962;9.768;2023-09-19T05:58:26;0.68;;;0.50;;
38779;SDS011;29273;49.962;9.768;2023-09-19T06:00:52;0.70;;;0.60;;
38779;SDS011;29273;49.962;9.768;2023-09-19T06:03:17;1.23;;;0.63;;
38779;SDS011;29273;49.962;9.768;2023-09-19T06:05:45;1.10;;;0.80;;
38779;SDS011;29273;49.962;9.768;2023-09-19T06:08:14;1.63;;;0.88;;
38779;SDS011;29273;49.962;9.768;2023-09-19T06:10:39;1.13;;;0.60;;
38779;SDS011;29273;49.962;9.768;2023-09-19T06:13:05;2.47;;;0.73;;
38779;SDS011;29273;49.962;9.768;2023-09-19T06:15:31;0.93;;;0.68;;
38779;SDS011;29273;49.962;9.768;2023-09-19T06:17:58;0.98;;;0.70;;
38779;SDS011;29273;49.962;9.768;2023-09-19T06:20:28;1.83;;;0.80;;
38779;SDS011;29273;49.962;9.768;2023-09-19T06:22:53;0.85;;;0.70;;
38779;SDS011;29273;49.962;9.768;2023-09-19T06:25:19;1.80;;;0.60;;
38779;SDS011;29273;49.962;9.768;2023-09-19T06:27:46;1.15;;;0.70;;
38779;SDS011;29273;49.962;9.768;2023-09-19T06:30:12;0.77;;;0.60;;
38779;SDS011;29273;49.962;9.768;2023-09-19T06:32:39;0.70;;;0.65;;
38779;SDS011;29273;49.962;9.768;2023-09-19T06:35:05;0.88;;;0.70;;
38779;SDS011;29273;49.962;9.768;2023-09-19T06:37:35;1.08;;;0.73;;
38779;SDS011;29273;49.962;9.768;2023-09-19T06:40:00;1.27;;;0.95;;
38779;SDS011;29273;49.962;9.768;2023-09-19T06:42:26;1.73;;;0.90;;
38779;SDS011;29273;49.962;9.768;2023-09-19T06:44:53;1.20;;;0.65;;
38779;SDS011;29273;49.962;9.768;2023-09-19T06:47:18;0.80;;;0.65;;
38779;SDS011;29273;49.962;9.768;2023-09-19T06:49:44;1.70;;;0.70;;
38779;SDS011;29273;49.962;9.768;2023-09-19T06:52:10;1.65;;;0.88;;
38779;SDS011;29273;49.962;9.768;2023-09-19T06:54:35;1.15;;;0.65;;
38779;SDS011;29273;49.962;9.768;2023-09-19T06:57:01;1.10;;;0.63;;
38779;SDS011;29273;49.962;9.768;2023-09-19T06:59:26;1.50;;;0.75;;
38779;SDS011;29273;49.962;9.768;2023-09-19T07:01:52;1.05;;;0.65;;
38779;SDS011;29273;49.962;9.768;2023-09-19T07:04:18;1.38;;;0.80;;
38779;SDS011;29273;49.962;9.768;2023-09-19T07:06:49;3.28;;;1.08;;
38779;SDS011;29273;49.962;9.768;2023-09-19T07:09:15;0.95;;;0.77;;
38779;SDS011;29273;49.962;9.768;2023-09-19T07:11:41;1.90;;;0.75;;
38779;SDS011;29273;49.962;9.768;2023-09-19T07:14:07;1.73;;;0.80;;
38779;SDS011;29273;49.962;9.768;2023-09-19T07:16:37;1.33;;;0.90;;
38779;SDS011;29273;49.962;9.768;2023-09-19T07:19:04;1.40;;;0.70;;
38779;SDS011;29273;49.962;9.768;2023-09-19T07:21:31;1.35;;;0.77;;
38779;SDS011;29273;49.962;9.768;2023-09-19T07:23:59;1.92;;;1.00;;
38779;SDS011;29273;49.962;9.768;2023-09-19T07:26:26;1.90;;;0.80;;
38779;SDS011;29273;49.962;9.768;2023-09-19T07:28:52;1.10;;;0.90;;
38779;SDS011;29273;49.962;9.768;2023-09-19T07:31:18;1.83;;;0.75;;
38779;SDS011;29273;49.962;9.768;2023-09-19T07:33:43;0.80;;;0.70;;
38779;SDS011;29273;49.962;9.768;2023-09-19T07:36:10;0.98;;;0.75;;
38779;SDS011;29273;49.962;9.768;2023-09-19T07:38:39;1.00;;;0.70;;
38779;SDS011;29273;49.962;9.768;2023-09-19T07:41:05;1.02;;;0.80;;
38779;SDS011;29273;49.962;9.768;2023-09-19T07:43:31;1.35;;;0.80;;
38779;SDS011;29273;49.962;9.768;2023-09-19T07:46:02;3.08;;;0.90;;
38779;SDS011;29273;49.962;9.768;2023-09-19T07:48:28;1.10;;;0.80;;
38779;SDS011;29273;49.962;9.768;2023-09-19T07:50:54;1.73;;;0.70;;
38779;SDS011;29273;49.962;9.768;2023-09-19T07:53:20;1.00;;;0.60;;
38779;SDS011;29273;49.962;9.768;2023-09-19T07:55:45;0.90;;;0.82;;
38779;SDS011;29273;49.962;9.768;2023-09-19T07:58:13;1.58;;;0.80;;
38779;SDS011;29273;49.962;9.768;2023-09-19T08:00:41;1.67;;;0.85;;
38779;SDS011;29273;49.962;9.768;2023-09-19T08:03:06;2.90;;;0.88;;
38779;SDS011;29273;49.962;9.768;2023-09-19T08:05:34;1.05;;;0.75;;
38779;SDS011;29273;49.962;9.768;2023-09-19T08:07:59;1.23;;;0.73;;
38779;SDS011;29273;49.962;9.768;2023-09-19T08:10:25;0.90;;;0.50;;
38779;SDS011;29273;49.962;9.768;2023-09-19T08:12:52;1.42;;;0.70;;
38779;SDS011;29273;49.962;9.768;2023-09-19T08:15:23;2.20;;;0.80;;
38779;SDS011;29273;49.962;9.768;2023-09-19T08:17:48;1.40;;;0.80;;
38779;SDS011;29273;49.962;9.768;2023-09-19T08:20:14;2.05;;;0.85;;
38779;SDS011;29273;49.962;9.768;2023-09-19T08:22:50;1.35;;;0.77;;
38779;SDS011;29273;49.962;9.768;2023-09-19T08:25:23;0.95;;;0.80;;
38779;SDS011;29273;49.962;9.768;2023-09-19T08:27:50;1.10;;;0.75;;
38779;SDS011;29273;49.962;9.768;2023-09-19T08:30:16;0.70;;;0.57;;
38779;SDS011;29273;49.962;9.768;2023-09-19T08:32:43;1.00;;;0.70;;
38779;SDS011;29273;49.962;9.768;2023-09-19T08:35:11;1.73;;;0.80;;
38779;SDS011;29273;49.962;9.768;2023-09-19T08:37:37;1.10;;;0.90;;
38779;SDS011;29273;49.962;9.768;2023-09-19T08:40:03;1.27;;;0.90;;
38779;SDS011;29273;49.962;9.768;2023-09-19T08:42:28;0.95;;;0.80;;
38779;SDS011;29273;49.962;9.768;2023-09-19T08:44:55;1.10;;;0.88;;
38779;SDS011;29273;49.962;9.768;2023-09-19T08:48:23;1.30;;;0.98;;
38779;SDS011;29273;49.962;9.768;2023-09-19T08:50:31;1.15;;;0.80;;
38779;SDS011;29273;49.962;9.768;2023-09-19T08:53:01;1.90;;;0.98;;
38779;SDS011;29273;49.962;9.768;2023-09-19T08:55:27;2.72;;;1.00;;
38779;SDS011;29273;49.962;9.768;2023-09-19T08:58:00;1.35;;;1.10;;
38779;SDS011;29273;49.962;9.768;2023-09-19T09:00:28;2.03;;;1.05;;
38779;SDS011;29273;49.962;9.768;2023-09-19T09:02:56;1.30;;;1.00;;
38779;SDS011;29273;49.962;9.768;2023-09-19T09:05:23;1.60;;;1.10;;
38779;SDS011;29273;49.962;9.768;2023-09-19T09:07:49;1.10;;;0.80;;
38779;SDS011;29273;49.962;9.768;2023-09-19T09:10:17;1.33;;;0.80;;
38779;SDS011;29273;49.962;9.768;2023-09-19T09:12:48;1.45;;;0.93;;
38779;SDS011;29273;49.962;9.768;2023-09-19T09:15:16;1.08;;;0.70;;
38779;SDS011;29273;49.962;9.768;2023-09-19T09:17:46;0.77;;;0.70;;
38779;SDS011;29273;49.962;9.768;2023-09-19T09:20:13;2.08;;;0.80;;
38779;SDS011;29273;49.962;9.768;2023-09-19T09:22:38;1.05;;;0.77;;
38779;SDS011;29273;49.962;9.768;2023-09-19T09:25:15;0.90;;;0.70;;
38779;SDS011;29273;49.962;9.768;2023-09-19T09:27:43;1.27;;;0.77;;
38779;SDS011;29273;49.962;9.768;2023-09-19T09:30:08;1.90;;;0.88;;
38779;SDS011;29273;49.962;9.768;2023-09-19T09:32:34;1.40;;;0.90;;
38779;SDS011;29273;49.962;9.768;2023-09-19T09:35:02;1.80;;;1.08;;
38779;SDS011;29273;49.962;9.768;2023-09-19T09:37:35;1.23;;;0.80;;
38779;SDS011;29273;49.962;9.768;2023-09-19T09:40:03;1.70;;;1.20;;
38779;SDS011;29273;49.962;9.768;2023-09-19T09:42:41;1.77;;;0.82;;
38779;SDS011;29273;49.962;9.768;2023-09-19T09:45:15;1.75;;;0.90;;
38779;SDS011;29273;49.962;9.768;2023-09-19T09:50:27;1.77;;;0.80;;
38779;SDS011;29273;49.962;9.768;2023-09-19T09:53:23;1.77;;;0.98;;
38779;SDS011;29273;49.962;9.768;2023-09-19T09:56:01;1.55;;;0.73;;
38779;SDS011;29273;49.962;9.768;2023-09-19T09:58:35;1.15;;;0.80;;
38779;SDS011;29273;49.962;9.768;2023-09-19T10:01:02;2.88;;;1.00;;
38779;SDS011;29273;49.962;9.768;2023-09-19T10:03:38;1.50;;;0.77;;
38779;SDS011;29273;49.962;9.768;2023-09-19T10:06:14;3.42;;;0.98;;
38779;SDS011;29273;49.962;9.768;2023-09-19T10:11:48;3.78;;;1.20;;
38779;SDS011;29273;49.962;9.768;2023-09-19T10:14:24;1.85;;;1.20;;
38779;SDS011;29273;49.962;9.768;2023-09-19T10:16:54;2.63;;;1.13;;
38779;SDS011;29273;49.962;9.768;2023-09-19T10:21:59;2.63;;;1.20;;
38779;SDS011;29273;49.962;9.768;2023-09-19T10:24:27;2.38;;;1.15;;
38779;SDS011;29273;49.962;9.768;2023-09-19T10:26:53;2.15;;;0.95;;
38779;SDS011;29273;49.962;9.768;2023-09-19T10:29:20;2.30;;;1.20;;
38779;SDS011;29273;49.962;9.768;2023-09-19T10:31:49;2.25;;;1.15;;
38779;SDS011;29273;49.962;9.768;2023-09-19T10:34:18;2.47;;;1.17;;
38779;SDS011;29273;49.962;9.768;2023-09-19T10:36:46;2.90;;;1.02;;
38779;SDS011;29273;49.962;9.768;2023-09-19T10:39:13;2.55;;;1.02;;
38779;SDS011;29273;49.962;9.768;2023-09-19T10:41:44;1.70;;;1.00;;
38779;SDS011;29273;49.962;9.768;2023-09-19T10:44:21;2.00;;;1.13;;
38779;SDS011;29273;49.962;9.768;2023-09-19T10:46:49;1.90;;;1.05;;
38779;SDS011;29273;49.962;9.768;2023-09-19T10:49:14;2.15;;;0.98;;
38779;SDS011;29273;49.962;9.768;2023-09-19T10:51:41;2.53;;;0.95;;
38779;SDS011;29273;49.962;9.768;2023-09-19T10:54:10;1.38;;;0.90;;
38779;SDS011;29273;49.962;9.768;2023-09-19T10:56:39;2.25;;;0.90;;
38779;SDS011;29273;49.962;9.768;2023-09-19T10:59:11;1.60;;;0.90;;
38779;SDS011;29273;49.962;9.768;2023-09-19T11:01:45;1.92;;;1.00;;
38779;SDS011;29273;49.962;9.768;2023-09-19T11:07:09;1.52;;;1.02;;
38779;SDS011;29273;49.962;9.768;2023-09-19T11:09:49;2.60;;;1.10;;
38779;SDS011;29273;49.962;9.768;2023-09-19T11:14:54;2.03;;;1.20;;
38779;SDS011;29273;49.962;9.768;2023-09-19T11:30:47;2.20;;;1.00;;
38779;SDS011;29273;49.962;9.768;2023-09-19T11:35:58;2.58;;;1.10;;
38779;SDS011;29273;49.962;9.768;2023-09-19T11:43:45;2.03;;;0.80;;
38779;SDS011;29273;49.962;9.768;2023-09-19T11:46:16;1.10;;;0.80;;
38779;SDS011;29273;49.962;9.768;2023-09-19T11:48:50;1.60;;;0.98;;
38779;SDS011;29273;49.962;9.768;2023-09-19T11:53:47;1.85;;;0.98;;
38779;SDS011;29273;49.962;9.768;2023-09-19T11:56:15;0.90;;;0.80;;
38779;SDS011;29273;49.962;9.768;2023-09-19T11:58:43;1.27;;;0.82;;
38779;SDS011;29273;49.962;9.768;2023-09-19T12:01:14;1.80;;;0.70;;
38779;SDS011;29273;49.962;9.768;2023-09-19T12:03:46;1.58;;;0.80;;
38779;SDS011;29273;49.962;9.768;2023-09-19T12:06:18;1.95;;;1.00;;
38779;SDS011;29273;49.962;9.768;2023-09-19T12:08:43;1.45;;;0.90;;
38779;SDS011;29273;49.962;9.768;2023-09-19T12:11:15;0.93;;;0.60;;
38779;SDS011;29273;49.962;9.768;2023-09-19T12:13:42;2.28;;;1.10;;
38779;SDS011;29273;49.962;9.768;2023-09-19T12:16:13;3.17;;;1.00;;
38779;SDS011;29273;49.962;9.768;2023-09-19T12:18:40;1.73;;;1.00;;
38779;SDS011;29273;49.962;9.768;2023-09-19T12:21:08;1.10;;;0.90;;
38779;SDS011;29273;49.962;9.768;2023-09-19T12:23:56;1.63;;;1.02;;
38779;SDS011;29273;49.962;9.768;2023-09-19T12:26:41;1.95;;;1.10;;
38779;SDS011;29273;49.962;9.768;2023-09-19T12:29:10;1.38;;;0.80;;
38779;SDS011;29273;49.962;9.768;2023-09-19T12:31:52;1.30;;;1.05;;
38779;SDS011;29273;49.962;9.768;2023-09-19T12:34:31;1.90;;;0.80;;
38779;SDS011;29273;49.962;9.768;2023-09-19T12:37:04;2.08;;;1.10;;
38779;SDS011;29273;49.962;9.768;2023-09-19T12:39:49;3.63;;;1.25;;
38779;SDS011;29273;49.962;9.768;2023-09-19T12:42:21;1.50;;;0.95;;
38779;SDS011;29273;49.962;9.768;2023-09-19T12:44:51;1.20;;;0.80;;
38779;SDS011;29273;49.962;9.768;2023-09-19T12:47:22;1.38;;;0.77;;
38779;SDS011;29273;49.962;9.768;2023-09-19T12:55:27;3.17;;;1.60;;
38779;SDS011;29273;49.962;9.768;2023-09-19T12:57:59;2.58;;;1.10;;
38779;SDS011;29273;49.962;9.768;2023-09-19T13:00:40;1.63;;;1.15;;
38779;SDS011;29273;49.962;9.768;2023-09-19T13:05:56;1.60;;;1.00;;
38779;SDS011;29273;49.962;9.768;2023-09-19T13:08:28;1.50;;;0.90;;
38779;SDS011;29273;49.962;9.768;2023-09-19T13:11:04;1.50;;;1.00;;
38779;SDS011;29273;49.962;9.768;2023-09-19T13:13:32;2.45;;;1.20;;
38779;SDS011;29273;49.962;9.768;2023-09-19T13:15:58;1.05;;;0.68;;
38779;SDS011;29273;49.962;9.768;2023-09-19T13:18:26;1.55;;;0.75;;
38779;SDS011;29273;49.962;9.768;2023-09-19T13:21:08;2.35;;;0.90;;
38779;SDS011;29273;49.962;9.768;2023-09-19T13:23:48;1.00;;;0.70;;
38779;SDS011;29273;49.962;9.768;2023-09-19T13:26:15;1.35;;;0.77;;
38779;SDS011;29273;49.962;9.768;2023-09-19T13:28:41;1.70;;;0.77;;
38779;SDS011;29273;49.962;9.768;2023-09-19T13:31:06;1.27;;;0.70;;
38779;SDS011;29273;49.962;9.768;2023-09-19T13:33:33;1.52;;;0.80;;
38779;SDS011;29273;49.962;9.768;2023-09-19T13:35:59;1.80;;;0.70;;
38779;SDS011;29273;49.962;9.768;2023-09-19T13:38:24;1.83;;;0.93;;
38779;SDS011;29273;49.962;9.768;2023-09-19T13:40:50;1.17;;;0.68;;
38779;SDS011;29273;49.962;9.768;2023-09-19T13:43:17;1.17;;;0.73;;
38779;SDS011;29273;49.962;9.768;2023-09-19T13:45:43;1.10;;;0.73;;
38779;SDS011;29273;49.962;9.768;2023-09-19T13:48:09;1.95;;;0.70;;
38779;SDS011;29273;49.962;9.768;2023-09-19T13:50:36;1.42;;;0.80;;
38779;SDS011;29273;49.962;9.768;2023-09-19T13:53:07;1.98;;;1.10;;
38779;SDS011;29273;49.962;9.768;2023-09-19T13:55:33;1.52;;;0.90;;
38779;SDS011;29273;49.962;9.768;2023-09-19T13:57:59;1.80;;;0.95;;
38779;SDS011;29273;49.962;9.768;2023-09-19T14:00:25;1.52;;;0.60;;
38779;SDS011;29273;49.962;9.768;2023-09-19T14:02:51;1.48;;;0.93;;
38779;SDS011;29273;49.962;9.768;2023-09-19T14:05:17;1.33;;;0.70;;
38779;SDS011;29273;49.962;9.768;2023-09-19T14:07:43;1.23;;;0.60;;
38779;SDS011;29273;49.962;9.768;2023-09-19T14:10:09;1.67;;;0.77;;
38779;SDS011;29273;49.962;9.768;2023-09-19T14:12:36;1.20;;;0.60;;
38779;SDS011;29273;49.962;9.768;2023-09-19T14:15:03;2.38;;;0.80;;
38779;SDS011;29273;49.962;9.768;2023-09-19T14:17:29;1.23;;;0.55;;
38779;SDS011;29273;49.962;9.768;2023-09-19T14:19:55;1.90;;;0.57;;
38779;SDS011;29273;49.962;9.768;2023-09-19T14:22:20;1.70;;;0.80;;
38779;SDS011;29273;49.962;9.768;2023-09-19T14:24:46;1.58;;;0.90;;
38779;SDS011;29273;49.962;9.768;2023-09-19T14:27:13;1.27;;;0.82;;
38779;SDS011;29273;49.962;9.768;2023-09-19T14:29:38;0.95;;;0.60;;
38779;SDS011;29273;49.962;9.768;2023-09-19T14:32:04;0.93;;;0.60;;
38779;SDS011;29273;49.962;9.768;2023-09-19T14:34:30;1.42;;;0.65;;
38779;SDS011;29273;49.962;9.768;2023-09-19T14:36:56;2.35;;;0.77;;
38779;SDS011;29273;49.962;9.768;2023-09-19T14:39:22;1.50;;;0.73;;
38779;SDS011;29273;49.962;9.768;2023-09-19T14:41:48;2.10;;;0.80;;
38779;SDS011;29273;49.962;9.768;2023-09-19T14:44:14;1.67;;;0.77;;
38779;SDS011;29273;49.962;9.768;2023-09-19T14:46:41;2.42;;;0.65;;
38779;SDS011;29273;49.962;9.768;2023-09-19T14:49:08;1.33;;;0.80;;
38779;SDS011;29273;49.962;9.768;2023-09-19T14:51:35;0.73;;;0.68;;
38779;SDS011;29273;49.962;9.768;2023-09-19T14:54:00;1.30;;;0.68;;
38779;SDS011;29273;49.962;9.768;2023-09-19T14:56:27;1.60;;;0.80;;
38779;SDS011;29273;49.962;9.768;2023-09-19T14:58:55;1.63;;;0.88;;
38779;SDS011;29273;49.962;9.768;2023-09-19T15:01:20;0.95;;;0.52;;
38779;SDS011;29273;49.962;9.768;2023-09-19T15:03:47;1.83;;;0.70;;
38779;SDS011;29273;49.962;9.768;2023-09-19T15:06:14;0.55;;;0.50;;
38779;SDS011;29273;49.962;9.768;2023-09-19T15:08:42;1.77;;;0.57;;
38779;SDS011;29273;49.962;9.768;2023-09-19T15:11:18;1.98;;;0.57;;
38779;SDS011;29273;49.962;9.768;2023-09-19T15:13:45;0.80;;;0.50;;
38779;SDS011;29273;49.962;9.768;2023-09-19T15:16:11;1.70;;;0.90;;
38779;SDS011;29273;49.962;9.768;2023-09-19T15:18:38;2.25;;;0.90;;
38779;SDS011;29273;49.962;9.768;2023-09-19T15:21:06;2.30;;;0.90;;
38779;SDS011;29273;49.962;9.768;2023-09-19T15:23:34;1.05;;;0.80;;
38779;SDS011;29273;49.962;9.768;2023-09-19T15:26:00;1.20;;;0.60;;
38779;SDS011;29273;49.962;9.768;2023-09-19T15:28:29;2.35;;;0.70;;
38779;SDS011;29273;49.962;9.768;2023-09-19T15:31:05;2.13;;;0.90;;
38779;SDS011;29273;49.962;9.768;2023-09-19T15:33:31;1.23;;;0.70;;
38779;SDS011;29273;49.962;9.768;2023-09-19T15:36:04;1.33;;;0.60;;
38779;SDS011;29273;49.962;9.768;2023-09-19T15:38:30;1.15;;;0.70;;
38779;SDS011;29273;49.962;9.768;2023-09-19T15:40:57;0.85;;;0.70;;
38779;SDS011;29273;49.962;9.768;2023-09-19T15:43:23;1.20;;;0.77;;
38779;SDS011;29273;49.962;9.768;2023-09-19T15:45:49;1.05;;;0.70;;
38779;SDS011;29273;49.962;9.768;2023-09-19T15:48:15;0.80;;;0.57;;
38779;SDS011;29273;49.962;9.768;2023-09-19T15:50:41;1.10;;;0.70;;
38779;SDS011;29273;49.962;9.768;2023-09-19T15:53:09;0.77;;;0.57;;
38779;SDS011;29273;49.962;9.768;2023-09-19T15:55:38;1.25;;;0.60;;
38779;SDS011;29273;49.962;9.768;2023-09-19T15:58:05;1.58;;;0.70;;
38779;SDS011;29273;49.962;9.768;2023-09-19T16:00:31;1.75;;;0.90;;